Time;durP1;ratioP1;P1;durP2;ratioP2;P2;SDS_P1;SDS_P2;PMS_P1;PMS_P2;Temp;Humidity;BMP_temperature;BMP_pressure;BME280_temperature;BME280_humidity;BME280_pressure;Samples;Min_cycle;Max_cycle;Signal;HPM_P1;HPM_P2
2021/06/29 04:32:40;;;;;;;18.37;8.53;;;17.10;99.90;;;;;;5258700;23;20463;-76
2021/06/29 04:35:06;;;;;;;8.73;7.90;;;17.10;99.90;;;;;;4999336;28;20479;-76
2021/06/29 04:37:31;;;;;;;7.90;7.40;;;17.10;99.90;;;;;;5008937;28;20183;-76
2021/06/29 04:39:57;;;;;;;9.53;8.60;;;17.20;99.90;;;;;;4992639;28;20394;-76
2021/06/29 04:42:23;;;;;;;8.60;7.80;;;17.20;99.90;;;;;;5020127;28;20224;-76
2021/06/29 04:44:49;;;;;;;8.07;7.20;;;17.20;99.90;;;;;;5031197;28;20212;-76
2021/06/29 04:47:15;;;;;;;8.60;7.80;;;17.20;99.90;;;;;;5012828;28;20421;-76
2021/06/29 04:49:40;;;;;;;8.00;7.30;;;17.30;99.90;;;;;;5013240;28;20178;-76
2021/06/29 04:52:06;;;;;;;7.27;6.67;;;17.30;99.90;;;;;;5020681;28;20492;-76
2021/06/29 04:54:32;;;;;;;6.63;6.23;;;17.40;99.90;;;;;;5016662;28;20655;-77
2021/06/29 04:56:57;;;;;;;6.40;5.93;;;17.30;99.90;;;;;;5013479;28;20659;-76
2021/06/29 04:59:23;;;;;;;6.30;5.80;;;17.40;99.90;;;;;;5012592;28;20179;-77
2021/06/29 05:01:48;;;;;;;7.47;6.77;;;17.30;99.90;;;;;;5011511;28;20207;-75
2021/06/29 05:04:14;;;;;;;7.60;6.30;;;17.30;99.90;;;;;;5011795;28;20532;-75
2021/06/29 05:06:39;;;;;;;7.13;6.43;;;17.30;99.90;;;;;;5012439;28;20194;-76
2021/06/29 05:09:05;;;;;;;9.20;6.97;;;17.30;99.90;;;;;;5015816;28;20167;-75
2021/06/29 05:11:30;;;;;;;7.73;6.77;;;17.30;99.90;;;;;;5022332;28;20205;-76
2021/06/29 05:13:56;;;;;;;6.83;6.33;;;17.30;99.90;;;;;;5021890;28;20222;-75
2021/06/29 05:16:22;;;;;;;7.60;6.90;;;17.30;99.90;;;;;;5017209;28;20225;-77
2021/06/29 05:18:47;;;;;;;7.97;7.27;;;17.30;99.90;;;;;;5015952;28;20842;-76
2021/06/29 05:21:13;;;;;;;9.00;6.27;;;17.30;99.90;;;;;;5016088;28;20203;-75
2021/06/29 05:23:39;;;;;;;7.30;6.70;;;17.30;99.90;;;;;;5034030;28;20214;-77
2021/06/29 05:26:04;;;;;;;6.60;6.10;;;17.30;99.90;;;;;;5019294;28;20175;-76
2021/06/29 05:28:30;;;;;;;6.90;6.20;;;17.30;99.90;;;;;;5016561;28;20193;-75
2021/06/29 05:30:55;;;;;;;7.53;6.97;;;17.30;99.90;;;;;;5014986;28;20187;-76
2021/06/29 05:33:21;;;;;;;7.87;6.83;;;17.30;99.90;;;;;;5017285;28;20229;-75
2021/06/29 05:35:47;;;;;;;7.37;6.67;;;17.40;99.90;;;;;;5015857;28;20179;-76
2021/06/29 05:38:13;;;;;;;7.03;5.83;;;17.40;99.90;;;;;;5015047;28;20432;-75
2021/06/29 05:40:39;;;;;;;7.70;7.10;;;17.40;99.90;;;;;;5018167;28;20177;-75
2021/06/29 05:43:04;;;;;;;7.33;6.67;;;17.40;99.90;;;;;;5011240;28;20515;-76
2021/06/29 05:45:30;;;;;;;7.90;7.13;;;17.40;99.90;;;;;;5036537;28;20181;-77
2021/06/29 05:47:56;;;;;;;6.90;6.40;;;17.40;99.90;;;;;;5030998;28;20193;-75
2021/06/29 05:50:22;;;;;;;7.13;6.60;;;17.40;99.90;;;;;;5014250;28;20198;-77
2021/06/29 05:52:48;;;;;;;5.93;5.53;;;17.40;99.90;;;;;;5014396;28;20453;-75
2021/06/29 05:55:14;;;;;;;6.30;5.70;;;17.50;99.90;;;;;;5014430;28;20448;-75
2021/06/29 05:57:41;;;;;;;6.30;5.80;;;17.50;99.90;;;;;;5014908;28;20206;-75
2021/06/29 06:00:13;;;;;;;6.63;6.13;;;17.50;99.90;;;;;;5017504;28;20429;-76
2021/06/29 06:02:39;;;;;;;9.27;5.90;;;17.50;99.90;;;;;;5011906;28;20457;-75
2021/06/29 06:05:09;;;;;;;6.07;5.10;;;17.50;99.90;;;;;;5016439;28;20880;-76
2021/06/29 06:07:36;;;;;;;5.40;4.90;;;17.60;99.90;;;;;;5027397;28;20464;-76
2021/06/29 06:10:02;;;;;;;6.10;5.60;;;17.60;99.90;;;;;;5032076;28;20957;-75
2021/06/29 06:12:28;;;;;;;8.53;4.87;;;17.60;99.90;;;;;;5018133;28;20580;-75
2021/06/29 06:14:55;;;;;;;6.47;5.80;;;17.60;99.90;;;;;;5017618;28;20513;-75
2021/06/29 06:17:21;;;;;;;6.87;6.33;;;17.70;99.90;;;;;;5014009;28;20619;-75
2021/06/29 06:19:47;;;;;;;7.40;5.77;;;17.80;99.90;;;;;;5014349;28;20420;-76
2021/06/29 06:22:12;;;;;;;5.50;5.10;;;17.90;99.90;;;;;;5019195;28;20465;-77
2021/06/29 06:24:38;;;;;;;6.37;5.97;;;18.10;99.90;;;;;;5018966;28;20250;-77
2021/06/29 06:27:04;;;;;;;9.73;5.57;;;18.10;99.90;;;;;;5017833;28;20644;-77
2021/06/29 06:29:29;;;;;;;6.47;5.87;;;18.30;99.90;;;;;;5014143;28;20194;-77
2021/06/29 06:31:55;;;;;;;5.50;5.10;;;18.40;99.90;;;;;;5014602;28;20480;-76
2021/06/29 06:34:20;;;;;;;4.90;4.57;;;18.50;99.90;;;;;;5019643;28;20795;-77
2021/06/29 06:36:47;;;;;;;4.97;4.57;;;18.60;99.90;;;;;;5016344;28;20191;-77
2021/06/29 06:39:13;;;;;;;5.93;4.60;;;18.70;99.90;;;;;;5019236;28;20555;-77
2021/06/29 06:41:39;;;;;;;6.33;4.50;;;18.80;99.90;;;;;;5016886;28;20457;-77
2021/06/29 06:44:04;;;;;;;5.17;4.80;;;18.90;99.90;;;;;;5020544;28;20448;-77
2021/06/29 06:46:30;;;;;;;5.07;4.57;;;19.00;99.90;;;;;;5018378;28;20193;-77
2021/06/29 06:48:55;;;;;;;5.13;3.70;;;19.30;99.90;;;;;;5016987;28;20198;-77
2021/06/29 06:51:21;;;;;;;4.13;3.83;;;19.80;99.90;;;;;;5025933;28;20209;-77
2021/06/29 06:53:47;;;;;;;4.50;4.10;;;20.30;99.90;;;;;;5019187;28;20218;-78
2021/06/29 06:56:15;;;;;;;6.50;3.80;;;20.80;99.90;;;;;;5015872;28;20557;-80
2021/06/29 06:58:42;;;;;;;3.47;3.27;;;21.40;99.90;;;;;;5014273;28;20171;-75
2021/06/29 07:01:09;;;;;;;2.23;2.13;;;21.80;99.90;;;;;;5012808;28;20524;-75
2021/06/29 07:03:34;;;;;;;2.17;1.97;;;22.00;99.90;;;;;;5012698;28;20433;-75
2021/06/29 07:06:00;;;;;;;2.03;1.93;;;22.00;99.90;;;;;;5012997;28;20829;-74
2021/06/29 07:08:25;;;;;;;8.10;2.87;;;22.10;99.90;;;;;;5016286;28;20200;-75
2021/06/29 07:10:53;;;;;;;2.17;2.03;;;22.50;99.90;;;;;;5024300;28;20179;-75
2021/06/29 07:13:19;;;;;;;1.97;1.87;;;22.80;99.90;;;;;;5011748;28;20233;-76
2021/06/29 07:15:44;;;;;;;1.63;1.53;;;22.70;99.90;;;;;;5019341;28;20964;-75
2021/06/29 07:18:18;;;;;;;1.97;1.87;;;23.10;99.90;;;;;;5023415;28;20171;-75
2021/06/29 07:20:45;;;;;;;2.37;1.80;;;23.30;99.90;;;;;;5013634;28;20528;-75
2021/06/29 07:23:12;;;;;;;1.80;1.70;;;23.50;99.90;;;;;;5014540;28;20428;-75
2021/06/29 07:25:38;;;;;;;1.87;1.77;;;23.70;99.90;;;;;;5028577;28;20489;-75
2021/06/29 07:28:04;;;;;;;4.13;1.40;;;23.90;99.90;;;;;;5011054;28;20809;-75
2021/06/29 07:30:30;;;;;;;1.53;1.43;;;24.00;99.90;;;;;;5012796;28;20517;-74
2021/06/29 07:32:58;;;;;;;1.90;1.80;;;24.40;99.90;;;;;;5009950;28;20338;-75
2021/06/29 07:35:25;;;;;;;1.77;1.53;;;24.80;99.90;;;;;;5010081;28;20426;-75
2021/06/29 07:37:51;;;;;;;1.67;1.67;;;24.60;99.90;;;;;;5012168;28;20818;-75
2021/06/29 07:40:16;;;;;;;2.60;1.10;;;24.80;99.90;;;;;;5014381;28;20633;-77
2021/06/29 07:42:42;;;;;;;1.47;1.00;;;24.70;99.90;;;;;;5026832;28;20198;-73
2021/06/29 07:45:09;;;;;;;1.00;1.00;;;24.70;99.90;;;;;;5028157;28;20197;-75
2021/06/29 07:47:35;;;;;;;1.90;1.40;;;24.90;99.90;;;;;;5028096;28;20182;-75
2021/06/29 07:50:01;;;;;;;1.40;1.13;;;25.10;99.90;;;;;;5012891;28;20772;-75
2021/06/29 07:52:27;;;;;;;1.33;1.23;;;25.50;99.90;;;;;;5012176;28;20472;-76
2021/06/29 07:54:53;;;;;;;1.50;1.40;;;25.40;99.90;;;;;;5012132;28;20435;-75
2021/06/29 07:57:18;;;;;;;1.53;1.43;;;25.50;99.90;;;;;;5018901;28;20209;-77
2021/06/29 07:59:44;;;;;;;1.50;1.40;;;25.50;99.90;;;;;;5012522;28;20632;-77
2021/06/29 08:02:09;;;;;;;1.60;1.50;;;25.30;99.90;;;;;;4997287;28;20571;-77
2021/06/29 08:04:37;;;;;;;0.97;0.97;;;25.20;99.90;;;;;;5012590;28;20182;-76
2021/06/29 08:07:03;;;;;;;1.93;1.47;;;25.40;99.90;;;;;;5012592;28;20193;-77
2021/06/29 08:09:28;;;;;;;4.20;1.00;;;25.50;99.90;;;;;;5015569;28;20440;-77
2021/06/29 08:11:54;;;;;;;1.57;1.47;;;25.20;99.90;;;;;;5032437;28;20425;-77
2021/06/29 08:14:19;;;;;;;1.50;1.40;;;25.50;99.90;;;;;;5028138;28;20174;-76
2021/06/29 08:16:46;;;;;;;2.57;1.40;;;25.50;99.90;;;;;;5032319;28;20227;-77
2021/06/29 08:19:11;;;;;;;1.67;1.30;;;25.70;99.90;;;;;;5006878;28;20185;-77
2021/06/29 08:21:37;;;;;;;2.97;1.00;;;26.20;99.90;;;;;;5011825;28;20914;-76
2021/06/29 08:24:03;;;;;;;2.03;1.10;;;26.30;99.90;;;;;;5011770;28;20181;-77
2021/06/29 08:26:29;;;;;;;1.57;1.10;;;26.40;99.90;;;;;;5019603;28;20436;-72
2021/06/29 08:28:54;;;;;;;4.13;0.87;;;26.20;99.90;;;;;;5032854;28;20424;-72
2021/06/29 08:31:21;;;;;;;1.40;1.30;;;26.30;99.90;;;;;;5024530;28;20214;-71
2021/06/29 08:33:53;;;;;;;3.90;1.10;;;26.90;99.90;;;;;;5011786;28;20209;-72
2021/06/29 08:36:18;;;;;;;0.87;0.87;;;27.20;99.90;;;;;;5026922;28;20422;-72
2021/06/29 08:38:44;;;;;;;0.80;0.80;;;27.20;99.90;;;;;;5010983;28;20432;-72
2021/06/29 08:41:11;;;;;;;1.30;0.70;;;27.60;99.90;;;;;;5010978;28;20224;-71
2021/06/29 08:43:36;;;;;;;0.90;0.90;;;27.90;99.90;;;;;;5010093;28;20190;-72
2021/06/29 08:46:02;;;;;;;2.43;1.03;;;27.10;99.90;;;;;;4991785;28;20425;-72
2021/06/29 08:48:28;;;;;;;0.83;0.83;;;26.50;99.90;;;;;;5003099;28;20175;-72
2021/06/29 08:50:53;;;;;;;2.93;1.10;;;27.00;99.90;;;;;;5011199;28;20171;-72
2021/06/29 08:53:19;;;;;;;1.10;0.90;;;26.90;99.90;;;;;;5010892;28;20699;-72
2021/06/29 08:55:47;;;;;;;0.60;0.60;;;27.40;99.90;;;;;;5011317;28;20217;-72
2021/06/29 08:58:21;;;;;;;0.80;0.80;;;27.40;99.90;;;;;;5018929;28;20166;-71
2021/06/29 09:00:48;;;;;;;0.90;0.77;;;27.80;99.90;;;;;;5030820;28;20415;-72
2021/06/29 09:03:14;;;;;;;0.90;0.80;;;28.00;99.90;;;;;;5030864;28;20420;-72
2021/06/29 09:05:47;;;;;;;1.77;0.80;;;28.00;99.90;;;;;;5031099;28;20412;-72
2021/06/29 09:08:18;;;;;;;1.70;0.80;;;28.30;99.90;;;;;;5030980;28;20229;-72
2021/06/29 09:11:09;;;;;;;1.57;1.00;;;28.70;99.90;;;;;;5030880;28;20471;-72
2021/06/29 09:13:35;;;;;;;1.13;0.80;;;28.20;99.90;;;;;;5030532;28;20467;-71
2021/06/29 09:16:00;;;;;;;0.93;0.83;;;27.50;99.90;;;;;;5031014;28;20400;-71
2021/06/29 09:18:29;;;;;;;1.27;1.27;;;26.90;99.90;;;;;;5030524;28;20178;-72
2021/06/29 09:21:08;;;;;;;0.90;0.80;;;26.90;99.90;;;;;;5025063;28;20216;-71
2021/06/29 09:23:40;;;;;;;0.90;0.90;;;27.60;99.90;;;;;;5030381;28;21007;-72
2021/06/29 09:26:14;;;;;;;0.70;0.70;;;28.10;99.90;;;;;;5030812;28;20419;-72
2021/06/29 09:28:47;;;;;;;1.03;0.80;;;28.50;99.90;;;;;;5030592;28;20405;-72
2021/06/29 09:31:15;;;;;;;1.90;1.10;;;28.80;99.90;;;;;;5030455;28;20880;-71
2021/06/29 09:33:43;;;;;;;1.47;1.37;;;29.00;99.90;;;;;;5030603;28;20464;-71
2021/06/29 09:36:21;;;;;;;0.70;0.70;;;28.70;99.90;;;;;;5008411;28;20453;-72
2021/06/29 09:38:48;;;;;;;0.90;0.90;;;28.80;99.90;;;;;;5012424;28;20414;-72
2021/06/29 09:41:24;;;;;;;0.97;0.97;;;28.50;99.90;;;;;;5011294;28;20430;-72
2021/06/29 09:43:55;;;;;;;0.80;0.80;;;28.60;99.90;;;;;;5015715;28;20429;-70
2021/06/29 09:46:23;;;;;;;1.33;0.73;;;29.10;99.90;;;;;;5016342;28;20428;-73
2021/06/29 09:48:56;;;;;;;0.80;0.80;;;29.10;99.90;;;;;;5012898;28;21099;-73
2021/06/29 09:51:30;;;;;;;0.70;0.70;;;29.50;99.90;;;;;;5020990;28;20527;-72
2021/06/29 09:53:58;;;;;;;0.73;0.73;;;30.00;99.90;;;;;;5033490;28;20554;-73
2021/06/29 09:56:37;;;;;;;1.00;0.90;;;30.70;99.90;;;;;;5031219;28;20451;-72
2021/06/29 09:59:04;;;;;;;0.97;0.97;;;30.60;99.90;;;;;;5020391;28;20417;-71
2021/06/29 10:01:30;;;;;;;1.40;1.00;;;31.10;99.90;;;;;;5019284;28;20465;-73
2021/06/29 10:04:03;;;;;;;1.57;0.70;;;30.50;99.90;;;;;;5001993;28;20445;-72
2021/06/29 10:06:30;;;;;;;0.80;0.80;;;30.40;99.90;;;;;;5025649;28;20221;-73
2021/06/29 10:09:08;;;;;;;0.90;0.90;;;30.80;99.90;;;;;;5033633;28;20471;-73
2021/06/29 10:11:42;;;;;;;1.90;1.00;;;31.50;99.90;;;;;;5033887;28;20432;-73
2021/06/29 10:14:10;;;;;;;0.93;0.83;;;31.80;99.90;;;;;;5034063;28;20464;-73
2021/06/29 10:16:43;;;;;;;1.80;1.13;;;31.40;99.90;;;;;;5033798;28;20413;-73
2021/06/29 10:22:05;;;;;;;1.20;1.10;;;31.10;99.90;;;;;;5033744;28;20956;-73
2021/06/29 10:24:35;;;;;;;0.93;0.93;;;30.70;99.90;;;;;;5033446;28;20416;-71
2021/06/29 10:27:04;;;;;;;1.37;0.90;;;30.20;99.90;;;;;;5033538;28;20420;-72
2021/06/29 10:29:30;;;;;;;1.43;1.33;;;29.60;99.90;;;;;;5033634;28;20421;-69
2021/06/29 10:32:06;;;;;;;1.50;1.40;;;28.80;99.90;;;;;;5033482;28;20448;-72
2021/06/29 10:34:36;;;;;;;1.23;1.13;;;28.10;99.90;;;;;;5033436;28;20806;-73
2021/06/29 10:37:04;;;;;;;1.23;1.13;;;27.60;99.90;;;;;;5033975;28;20455;-73
2021/06/29 10:39:32;;;;;;;1.10;1.10;;;28.00;99.90;;;;;;5029106;28;20424;-72
2021/06/29 10:42:02;;;;;;;1.30;1.10;;;29.00;99.90;;;;;;5023111;28;20830;-74
2021/06/29 10:44:37;;;;;;;1.67;1.27;;;29.90;99.90;;;;;;5015443;28;20918;-73
2021/06/29 10:47:20;;;;;;;1.50;1.40;;;30.50;99.90;;;;;;5014988;28;20550;-75
2021/06/29 10:50:14;;;;;;;2.13;1.33;;;30.80;99.90;;;;;;5014488;28;20937;-74
2021/06/29 10:52:43;;;;;;;2.73;1.43;;;30.40;99.90;;;;;;5014336;28;20465;-74
2021/06/29 10:55:17;;;;;;;1.77;1.57;;;29.70;99.90;;;;;;5014460;28;21049;-73
2021/06/29 10:57:46;;;;;;;1.63;1.40;;;29.60;99.90;;;;;;5022173;28;20417;-74
2021/06/29 11:00:20;;;;;;;1.50;1.40;;;30.00;99.90;;;;;;5021885;28;20504;-73
2021/06/29 11:03:02;;;;;;;1.83;1.37;;;30.50;99.90;;;;;;5029007;28;20447;-74
2021/06/29 11:05:40;;;;;;;1.10;1.10;;;30.60;99.90;;;;;;5029545;28;20748;-73
2021/06/29 11:08:20;;;;;;;2.53;1.63;;;30.50;99.90;;;;;;5029965;28;20841;-73
2021/06/29 11:10:49;;;;;;;1.63;1.53;;;30.00;99.90;;;;;;5031354;28;20435;-73
2021/06/29 11:13:19;;;;;;;5.53;1.50;;;29.70;99.90;;;;;;5032578;28;20466;-72
2021/06/29 11:15:49;;;;;;;2.23;1.40;;;29.60;99.90;;;;;;5015723;28;20429;-72
2021/06/29 11:18:17;;;;;;;1.20;1.20;;;29.60;99.90;;;;;;5030209;28;20781;-72
2021/06/29 11:20:48;;;;;;;1.00;0.80;;;29.70;99.90;;;;;;5032532;28;20497;-72
2021/06/29 11:23:22;;;;;;;3.13;1.20;;;29.70;99.90;;;;;;5024458;28;20476;-73
2021/06/29 11:26:15;;;;;;;0.93;0.93;;;29.30;99.90;;;;;;5012317;28;20486;-71
2021/06/29 11:28:44;;;;;;;1.70;1.60;;;28.70;99.90;;;;;;5012740;28;20406;-71
2021/06/29 11:31:15;;;;;;;1.37;1.30;;;28.00;99.90;;;;;;5012643;28;20476;-72
2021/06/29 11:33:42;;;;;;;1.70;1.60;;;28.00;99.90;;;;;;5018910;28;20837;-72
2021/06/29 11:36:26;;;;;;;2.30;1.43;;;28.10;99.90;;;;;;5023296;28;20421;-71
2021/06/29 11:39:20;;;;;;;6.20;1.57;;;28.40;99.90;;;;;;5032711;28;20413;-73
2021/06/29 11:42:01;;;;;;;1.60;1.50;;;28.60;99.90;;;;;;5030837;28;20976;-72
2021/06/29 11:44:27;;;;;;;1.80;1.70;;;28.60;99.90;;;;;;5032171;28;20412;-71
2021/06/29 11:47:03;;;;;;;3.27;1.93;;;28.70;99.90;;;;;;5031947;28;20420;-73
2021/06/29 11:49:29;;;;;;;2.00;1.20;;;28.60;99.90;;;;;;5032240;28;20654;-74
2021/06/29 11:51:56;;;;;;;1.30;1.30;;;28.40;99.90;;;;;;5014915;28;20446;-73
2021/06/29 11:54:45;;;;;;;2.57;1.87;;;28.20;99.90;;;;;;5011810;28;20203;-73
2021/06/29 11:57:19;;;;;;;2.60;2.00;;;27.80;99.90;;;;;;5027964;28;20419;-73
2021/06/29 11:59:45;;;;;;;2.37;1.70;;;27.60;99.90;;;;;;5031316;28;20865;-74
2021/06/29 12:02:16;;;;;;;1.50;1.33;;;27.30;99.90;;;;;;5023009;28;20433;-73
2021/06/29 12:05:01;;;;;;;3.07;1.47;;;27.30;99.90;;;;;;5032125;28;20778;-74
2021/06/29 12:07:40;;;;;;;2.17;1.90;;;27.30;99.90;;;;;;5023617;28;20449;-73
2021/06/29 12:10:09;;;;;;;2.50;1.77;;;27.30;99.90;;;;;;5011858;28;20409;-74
2021/06/29 12:12:35;;;;;;;1.87;1.50;;;27.30;99.90;;;;;;5011695;28;20461;-71
2021/06/29 12:15:23;;;;;;;2.13;1.50;;;27.30;99.90;;;;;;5011315;28;20816;-72
2021/06/29 12:17:50;;;;;;;1.77;1.57;;;27.40;99.90;;;;;;5027322;28;20424;-72
2021/06/29 12:20:17;;;;;;;1.47;1.47;;;27.50;99.90;;;;;;5029067;28;20417;-71
2021/06/29 12:22:44;;;;;;;3.13;2.80;;;27.40;99.90;;;;;;5019054;28;20473;-71
2021/06/29 12:25:28;;;;;;;4.30;2.80;;;27.50;99.90;;;;;;5018297;28;20421;-72
2021/06/29 12:28:10;;;;;;;2.00;1.90;;;27.40;99.90;;;;;;5023877;28;20424;-72
2021/06/29 12:30:47;;;;;;;1.90;1.80;;;27.30;99.90;;;;;;5031316;28;20409;-71
2021/06/29 12:33:21;;;;;;;1.80;1.70;;;27.00;99.90;;;;;;5030841;28;20617;-73
2021/06/29 12:35:54;;;;;;;3.10;1.70;;;27.00;99.90;;;;;;5031412;28;20485;-74
2021/06/29 12:38:23;;;;;;;1.70;1.60;;;26.90;99.90;;;;;;5031124;28;20427;-73
2021/06/29 12:40:53;;;;;;;2.10;1.90;;;26.70;99.90;;;;;;5031218;28;20466;-73
2021/06/29 12:43:26;;;;;;;2.10;1.70;;;26.60;99.90;;;;;;5030981;28;20921;-73
2021/06/29 12:45:53;;;;;;;2.07;1.93;;;26.30;99.90;;;;;;5031240;28;20424;-72
2021/06/29 12:48:18;;;;;;;2.17;2.03;;;26.10;99.90;;;;;;5031233;28;20455;-73
2021/06/29 12:50:59;;;;;;;5.80;1.47;;;25.90;99.90;;;;;;5031177;28;20416;-74
2021/06/29 12:53:24;;;;;;;4.97;1.73;;;25.80;99.90;;;;;;5032877;28;20202;-72
2021/06/29 12:55:50;;;;;;;4.37;1.90;;;25.60;99.90;;;;;;5031540;28;20853;-73
2021/06/29 12:58:16;;;;;;;2.43;1.67;;;25.50;99.90;;;;;;5030702;28;20174;-72
2021/06/29 13:00:49;;;;;;;2.20;1.30;;;25.40;99.90;;;;;;5030677;28;20655;-71
2021/06/29 13:03:19;;;;;;;2.43;1.40;;;25.20;99.90;;;;;;5031644;28;20535;-75
2021/06/29 13:05:44;;;;;;;7.33;1.53;;;24.90;99.90;;;;;;5030981;28;20913;-74
2021/06/29 13:08:15;;;;;;;6.63;1.20;;;22.90;99.90;;;;;;5031111;28;20482;-75
2021/06/29 13:10:45;;;;;;;6.80;1.90;;;21.20;99.90;;;;;;5030984;28;20178;-74
2021/06/29 13:13:22;;;;;;;4.93;1.30;;;19.60;99.90;;;;;;5030449;28;20452;-73
2021/06/29 13:15:50;;;;;;;4.33;1.30;;;18.40;99.90;;;;;;5030899;28;20416;-73
2021/06/29 13:18:34;;;;;;;5.53;1.60;;;17.80;99.90;;;;;;5030638;28;20412;-73
2021/06/29 13:21:22;;;;;;;3.83;1.37;;;17.30;99.90;;;;;;5030753;28;20428;-73
2021/06/29 13:24:09;;;;;;;1.37;1.03;;;17.00;99.90;;;;;;5030815;28;20420;-73
2021/06/29 13:26:49;;;;;;;6.23;1.07;;;16.80;99.90;;;;;;5030827;28;20469;-73
2021/06/29 13:29:22;;;;;;;2.30;1.00;;;16.70;99.90;;;;;;5016343;28;20419;-73
2021/06/29 13:31:48;;;;;;;3.03;0.70;;;16.50;99.90;;;;;;5034986;28;20480;-73
2021/06/29 13:34:25;;;;;;;1.63;0.90;;;16.40;99.90;;;;;;5034299;28;20846;-72
2021/06/29 13:36:51;;;;;;;1.00;0.80;;;16.30;99.90;;;;;;5034620;28;20761;-73
2021/06/29 13:39:26;;;;;;;5.60;1.03;;;16.20;99.90;;;;;;5034205;28;20983;-72
2021/06/29 13:41:51;;;;;;;2.53;2.43;;;16.20;99.90;;;;;;5034284;28;20433;-73
2021/06/29 13:44:17;;;;;;;2.20;1.17;;;16.10;99.90;;;;;;5034149;28;20490;-73
2021/06/29 13:46:43;;;;;;;2.93;1.00;;;16.10;99.90;;;;;;5034707;28;20189;-73
2021/06/29 13:49:23;;;;;;;0.70;0.70;;;16.10;99.90;;;;;;5034507;28;20185;-73
2021/06/29 13:52:02;;;;;;;2.23;0.90;;;16.10;99.90;;;;;;5034589;28;20436;-73
2021/06/29 13:54:28;;;;;;;0.97;0.97;;;16.10;99.90;;;;;;5032779;28;20463;-73
2021/06/29 13:56:53;;;;;;;1.53;1.07;;;16.10;99.90;;;;;;5034508;28;20975;-73
2021/06/29 13:59:38;;;;;;;1.83;1.10;;;16.10;99.90;;;;;;5033998;28;20178;-74
2021/06/29 14:02:05;;;;;;;1.23;0.83;;;16.10;99.90;;;;;;5032950;28;20606;-73
2021/06/29 14:04:49;;;;;;;1.40;0.90;;;16.10;99.90;;;;;;5033874;28;20861;-73
2021/06/29 14:07:14;;;;;;;0.70;0.70;;;16.10;99.90;;;;;;5036126;28;20424;-73
2021/06/29 14:09:40;;;;;;;0.87;0.87;;;16.00;99.90;;;;;;5038382;28;20416;-73
2021/06/29 14:12:07;;;;;;;0.70;0.70;;;15.90;99.90;;;;;;5034025;28;20276;-73
2021/06/29 14:14:35;;;;;;;1.80;0.80;;;15.90;99.90;;;;;;5033708;28;20242;-73
2021/06/29 14:17:02;;;;;;;1.80;1.10;;;15.90;99.90;;;;;;5033855;28;20416;-73
2021/06/29 14:19:28;;;;;;;0.70;0.70;;;15.80;99.90;;;;;;5033572;28;20794;-73
2021/06/29 14:21:53;;;;;;;1.17;0.80;;;15.80;99.90;;;;;;5033723;28;20435;-73
2021/06/29 14:24:19;;;;;;;1.43;0.80;;;15.80;99.90;;;;;;5033454;28;20176;-72
2021/06/29 14:26:45;;;;;;;1.90;1.00;;;15.80;99.90;;;;;;5033902;28;20170;-72
2021/06/29 14:29:11;;;;;;;0.93;0.83;;;15.80;99.90;;;;;;5033507;28;20181;-72
2021/06/29 14:31:36;;;;;;;1.63;0.90;;;15.80;99.90;;;;;;5033177;28;20465;-72
2021/06/29 14:34:03;;;;;;;4.30;1.10;;;15.90;99.90;;;;;;5021276;28;20210;-73
2021/06/29 14:36:34;;;;;;;1.47;1.00;;;15.80;99.90;;;;;;5024997;28;20197;-73
2021/06/29 14:39:01;;;;;;;4.03;1.63;;;15.80;99.90;;;;;;5033167;28;20495;-72
2021/06/29 14:41:27;;;;;;;2.63;1.07;;;15.80;99.90;;;;;;5033062;28;20819;-73
2021/06/29 14:43:53;;;;;;;1.70;0.83;;;15.70;99.90;;;;;;5033392;28;20500;-72
2021/06/29 14:46:19;;;;;;;1.83;1.30;;;15.70;99.90;;;;;;5032968;28;20220;-73
2021/06/29 14:48:45;;;;;;;2.40;1.30;;;15.70;99.90;;;;;;5033061;28;20180;-73
2021/06/29 14:51:11;;;;;;;5.00;2.60;;;15.70;99.90;;;;;;5030471;28;20985;-71
2021/06/29 14:53:36;;;;;;;2.10;1.47;;;15.70;99.90;;;;;;5012625;28;20473;-73
2021/06/29 14:56:03;;;;;;;2.10;1.40;;;15.70;99.90;;;;;;5012533;28;20931;-73
2021/06/29 14:58:28;;;;;;;3.13;1.30;;;15.70;99.90;;;;;;5012219;28;20473;-72
2021/06/29 15:00:54;;;;;;;1.40;1.27;;;15.70;99.90;;;;;;5012936;28;20175;-73
2021/06/29 15:03:21;;;;;;;1.70;1.20;;;15.60;99.90;;;;;;5012570;28;20564;-72
2021/06/29 15:05:46;;;;;;;6.83;1.30;;;15.60;99.90;;;;;;5012824;28;20410;-72
2021/06/29 15:08:12;;;;;;;3.03;1.80;;;15.60;99.90;;;;;;5012860;28;20791;-72
2021/06/29 15:10:37;;;;;;;2.33;1.47;;;15.60;99.90;;;;;;5012608;28;20242;-71
2021/06/29 15:13:08;;;;;;;4.93;1.40;;;15.50;99.90;;;;;;5012985;28;20207;-72
2021/06/29 15:15:38;;;;;;;3.17;1.30;;;15.50;99.90;;;;;;5012911;28;20175;-72
2021/06/29 15:18:05;;;;;;;1.30;1.20;;;15.50;99.90;;;;;;5013894;28;20405;-73
2021/06/29 15:20:32;;;;;;;1.47;1.37;;;15.60;99.90;;;;;;5014946;28;20406;-73
2021/06/29 15:22:58;;;;;;;4.57;2.27;;;15.50;99.90;;;;;;5012824;28;20465;-74
2021/06/29 15:25:24;;;;;;;1.73;1.53;;;15.60;99.90;;;;;;5012897;28;20522;-74
2021/06/29 15:27:50;;;;;;;1.70;1.60;;;15.70;99.90;;;;;;5013049;28;20524;-76
2021/06/29 15:30:16;;;;;;;2.43;1.33;;;15.70;99.90;;;;;;5012860;28;20633;-76
2021/06/29 15:32:41;;;;;;;2.17;1.10;;;15.90;99.90;;;;;;5012325;28;20469;-75
2021/06/29 15:35:11;;;;;;;2.00;1.43;;;16.00;99.90;;;;;;5012961;28;20596;-75
2021/06/29 15:37:37;;;;;;;3.33;1.50;;;16.20;99.90;;;;;;5012661;28;20644;-75
2021/06/29 15:40:06;;;;;;;1.80;1.70;;;16.30;99.90;;;;;;4995150;28;20409;-75
2021/06/29 15:42:32;;;;;;;4.57;1.60;;;16.40;99.90;;;;;;5012164;28;21021;-77
2021/06/29 15:44:57;;;;;;;0.80;0.80;;;16.50;99.90;;;;;;5012610;28;20409;-75
2021/06/29 15:47:23;;;;;;;2.00;1.23;;;16.50;99.90;;;;;;5012359;28;20183;-74
2021/06/29 15:49:48;;;;;;;1.20;1.10;;;16.50;99.90;;;;;;4994406;28;20181;-74
2021/06/29 15:52:14;;;;;;;0.80;0.80;;;16.60;99.90;;;;;;5011936;28;20190;-75
2021/06/29 15:54:39;;;;;;;1.67;0.93;;;16.70;99.90;;;;;;5012324;28;20175;-74
2021/06/29 15:57:05;;;;;;;1.33;0.93;;;16.80;99.90;;;;;;5012200;28;20178;-75
2021/06/29 15:59:30;;;;;;;1.00;0.90;;;17.00;99.90;;;;;;5011986;28;20659;-74
2021/06/29 16:01:56;;;;;;;1.77;1.23;;;17.00;99.90;;;;;;5011687;28;20199;-75
2021/06/29 16:04:21;;;;;;;1.20;1.10;;;17.10;99.90;;;;;;5011609;28;20182;-75
2021/06/29 16:06:52;;;;;;;4.00;0.90;;;17.10;99.90;;;;;;5011978;28;20179;-74
2021/06/29 16:09:18;;;;;;;4.90;1.07;;;17.00;99.90;;;;;;5011822;28;20256;-74
2021/06/29 16:11:43;;;;;;;1.23;0.90;;;16.90;99.90;;;;;;5011766;28;20472;-74
2021/06/29 16:14:10;;;;;;;0.87;0.80;;;16.90;99.90;;;;;;5010108;28;20857;-74
2021/06/29 16:16:36;;;;;;;1.10;1.10;;;17.00;99.90;;;;;;5011404;28;20277;-74
2021/06/29 16:19:04;;;;;;;2.87;1.00;;;17.10;99.90;;;;;;5010442;28;20468;-74
2021/06/29 16:21:34;;;;;;;1.13;1.03;;;17.10;99.90;;;;;;5011478;28;20948;-74
2021/06/29 16:24:00;;;;;;;0.90;0.90;;;17.00;99.90;;;;;;4994039;28;20523;-74
2021/06/29 16:26:26;;;;;;;3.27;0.80;;;17.10;99.90;;;;;;5011464;28;20508;-74
2021/06/29 16:28:52;;;;;;;2.50;1.00;;;17.20;99.90;;;;;;5011568;28;20207;-75
2021/06/29 16:31:18;;;;;;;0.83;0.83;;;17.30;99.90;;;;;;5011067;28;20531;-75
2021/06/29 16:33:44;;;;;;;1.60;1.50;;;17.30;99.90;;;;;;5011542;28;20461;-75
2021/06/29 16:36:11;;;;;;;1.77;1.10;;;17.40;99.90;;;;;;5011924;28;20406;-74
2021/06/29 16:38:44;;;;;;;1.13;1.03;;;17.40;99.90;;;;;;5011659;28;20409;-74
2021/06/29 16:41:10;;;;;;;1.80;0.80;;;17.50;99.90;;;;;;4993956;28;20448;-73
2021/06/29 16:43:36;;;;;;;0.90;0.90;;;17.50;99.90;;;;;;5012423;28;20496;-74
2021/06/29 16:46:04;;;;;;;1.00;0.80;;;17.40;99.90;;;;;;5012122;28;20511;-74
2021/06/29 16:48:30;;;;;;;2.20;0.70;;;17.40;99.90;;;;;;5011993;28;20197;-75
2021/06/29 16:50:56;;;;;;;0.87;0.87;;;17.30;99.90;;;;;;5011518;28;20436;-74
2021/06/29 16:53:22;;;;;;;1.00;0.90;;;17.30;99.90;;;;;;5010911;28;20465;-74
2021/06/29 16:55:47;;;;;;;0.80;0.80;;;17.20;99.90;;;;;;5010459;28;20558;-75
2021/06/29 16:58:13;;;;;;;0.90;0.80;;;17.30;99.90;;;;;;5011583;28;20236;-74
2021/06/29 17:00:39;;;;;;;0.80;0.80;;;17.30;99.90;;;;;;5012804;28;20167;-75
2021/06/29 17:03:05;;;;;;;1.90;0.93;;;17.40;99.90;;;;;;5012096;28;20462;-75
2021/06/29 17:05:31;;;;;;;0.90;0.90;;;17.40;99.90;;;;;;5010977;28;20914;-75
2021/06/29 17:07:56;;;;;;;0.83;0.80;;;17.40;99.90;;;;;;5010969;28;20609;-73
2021/06/29 17:10:22;;;;;;;1.10;1.00;;;17.40;99.90;;;;;;5011076;28;20175;-75
2021/06/29 17:12:49;;;;;;;2.40;0.90;;;17.40;99.90;;;;;;5010301;28;20553;-72
2021/06/29 17:15:15;;;;;;;1.30;0.93;;;17.40;99.90;;;;;;5010840;28;20492;-75
2021/06/29 17:17:40;;;;;;;1.33;1.17;;;17.40;99.90;;;;;;5010917;28;21004;-75
2021/06/29 17:20:08;;;;;;;1.47;1.37;;;17.40;99.90;;;;;;5011275;28;20174;-76
2021/06/29 17:22:34;;;;;;;1.23;0.90;;;17.50;99.90;;;;;;5010318;28;20799;-75
2021/06/29 17:25:00;;;;;;;1.43;0.83;;;17.50;99.90;;;;;;5010514;28;20496;-76
2021/06/29 17:27:25;;;;;;;3.43;0.70;;;17.50;99.90;;;;;;5010794;28;20178;-74
2021/06/29 17:29:53;;;;;;;1.30;1.20;;;17.50;99.90;;;;;;5011025;28;20181;-72